Silver City, Idaho
Current Conditions -  °F | °C
As of 2:55 AM on Sunday 25 Jan 2015 (Local Time) from KMAN Reporting Station
NA  
Wind Chill: 27°   Ceiling: NA
Heat Index: 27°   Visibility: 2.5mi
Dew Point: 27°   Wind: 3mph
Humidity: 100%   Direction: 120°ESE
Pressure: 30.48"   Gusts: NA
Location:  42.9915°N, 116.705°W
Report Text: KMAN 250955Z AUTO 12003KT 2 1/2SM M03/M03 A3048 RMK AO1
Loading
Personal Weather Stations






























Interactive Weather Map New forecast layout! Learn more

10-Day Weather Forecast

Advertisements
Track Severe Weather on mobile